ETMN

Nordholz Naval Airbase

Airport
ICAO code
ETMN
Summary
ICAO Region
EUR
ICAO Territory
Location

Nordholz, Lower Saxony,

Coordinates
53° 46' 2" N , 8° 39' 30" E
Metar
ETMN 231120Z 25008KT 9999 FEW025 BKN040 18/11 Q1013 BLU BLU+ TEMPO WHT

Description

Nordholz Naval Airbase is a German Naval Air base located near the town of Nordholz in Lower Saxony, 25 km north of Bremerhaven, and 12 km southwest of Cuxhaven.

Runways

Designator Length Width Surface Rops
8/26 2439 45 CON No/No

Airport map

Aerial View

SKYbrary Partners:

Safety knowledge contributed by: